Hlavní strana
METAR-TAF:

METAR-TAF

Letiště :

Ouargla, Alžírsko

zeměpisná šířka: 31-55N, zeměpisná délka: 005-24E, výška: 141 m

Aktuální stav počasí

Zpráva byla vytvořena před 48 minutami, v 21:00 UTC
Východoseverovýchodní vítr 4 kt
Teplota 16°C
Vlhkost vzduchu 39%
Tlak 1019 hPa
Viditelnost 10 km a více
Žádná oblačnost pod 1500 m, nevyskytují se cumulonimby.

METAR: DAUU 042100Z 06004KT CAVOK 16/02 Q1019

Čas: 22:48 (21:48 UTC)

Předpověď počasí

Zpráva byla vytvořena před 1 hodinou a 48 minutami, v 20:00 UTC
Předpověď platná od 04 v 21 UTC do 05 v 06 UTC
Východoseverovýchodní vítr 6 kt
Viditelnost 10 km a více
Žádná oblačnost pod 1500 m, nevyskytují se cumulonimby.

TAF: DAUU 042000Z 0421/0506 06006KT CAVOK

Stav a předpovědi počasí z více než 4 000 letišť (zprávy METAR a TAF).

Červené a žluté tečky na mapě představují dostupné meteorologické stanice.

Když kurzor umístíte na tečku, zobrazí se název stanice.

Pak kliknutím zobrazíte stav a předpověď počasí.

Chcete-li změnit mapu, kliknutím na zelené tlačítko se znaménkem +mapu přiblížíte, kliknutím na zelené tlačítko se znaménkem – mapu oddálíte a kliknutím na zelené šipky přejdete na sousední mapy.


METAR-TAF: